Impacts TAF Board
For situational awareness. Not to be used for flight planning purposes.
IDs:

KDEN - Denver Intl, CO, US

Issued at 0659 UTC 23 Feb 2019
Updated at 0727 UTC 23 Feb 2019
Potential Impact None Slight Moderate High
Time0653Z 23/08Z 23/09Z 23/10Z 23/11Z 23/12Z 23/13Z 23/14Z 23/15Z 23/16Z 23/17Z 23/18Z 23/19Z 23/20Z>>
Type OBS PRVL
  [TEMP]  
PRVL PRVL PRVL PRVL PRVL PRVL PRVL PRVL PRVL PRVL PRVL PRVL
VIS 0.25 2
  [0.75]  
2 5 5 >6 >6 >6 >6 >6 >6 >6 >6 >6
CIG 10 10
  [7]  
10 20 20 15 15 15 15 -- -- -- -- --
Cover OVC OVC
  [OVC]  
OVC OVC OVC BKN BKN BKN BKN SCT SCT SCT SCT SCT
FltCat LIFR IFR
  [LIFR]  
IFR MVFR MVFR MVFR MVFR MVFR MVFR VFR VFR VFR VFR VFR
WX -SN BR -SN BR
  [-SN BR]  
-SN BR -SN BR -SN BR -- -- -- -- -- -- -- -- --
WDir 300 270
[270]
270 230 230 190 190 190 190 260 260 260 10 10
WSpd 8 5
  [5]  
5 5 5 5 5 5 5 8 8 8 12 12
WGst -- --
  [--]  
-- -- -- -- -- -- -- -- -- -- -- --
Raw TAF
KDEN 230659Z 2307/2412 27005KT 2SM -SN BR BKN010 OVC015
  TEMPO 2307/2309 3/4SM -SN BR OVC007
  FM231000 23005KT 5SM -SN BR BKN020 OVC035
  FM231200 19005KT P6SM SCT006 BKN015 BKN070
  FM231600 26008KT P6SM SCT220
  FM231900 01012KT P6SM SCT220
  FM232100 32015G21KT P6SM FEW220
  TEMPO 2322/2324 28016G26KT
  FM240200 33008KT P6SM FEW120


Raw METAR
KDEN 230653Z 30008KT 1/4SM R35L/P6000FT -SN BR SCT007 OVC010 M05/M06 A2979 RMK AO2 SFC VIS 3/4 SLP113 P0005 T10501061 410221061
KDEN 230604Z 00000KT 1/4SM R35L/3500V6000FT SN FZFG VV009 M06/M06 A2980 RMK AO2 SFC VIS 1/2 P0001 T10561061
KDEN 230553Z 35003KT 1/4SM R35L/5000V5500FT -SN BR VV011 M05/M06 A2980 RMK AO2 SFC VIS 3/4 SLP117 P0003 60035 T10501061 11044 21056 50002
KDEN 230509Z 32003KT 1/4SM R35L/P6000FT -SN BR VV016 M05/M06 A2981 RMK AO2 SFC VIS 1 P0001 T10501061
KDEN 230453Z 35003KT 1/4SM R35L/6000VP6000FT -SN BR VV011 M05/M06 A2981 RMK AO2 SFC VIS 3/4 SLP124 P0007 T10501061

METAR Board
Radar Display
Forecast Discussion
For situational awareness. Not to be used for flight planning purposes.